Hovedside
METAR-TAF:

METAR-TAF

Lufthavner :

Norne Fpso, Norge

Oljeplattform

breddegrad: 66-01-48N, lengdegrad: 008-04-48E, høyde over havet: 10 m

Gjeldene værobservasjon

Denne rapporten ble laget for 37 minutter siden, klokken 18:20 UTC
Vind 19 kt fra Sør
Temperatur 12°C
Luftfuktighet 94%
Trykk 1022 hPa
Sikt 10 km eller mer

METAR: ENNE 221820Z AUTO 19019KT 9999NDV OVC051/// 12/11 Q1022 W///S4

Tid: 20:57 (18:57 UTC)

Varsel

Denne rapporten ble laget for 7 timer og 57 minutter siden, klokken 11:00 UTC
Varsel gyldig fra 22. klokken 12 UTC til 22. klokken 17 UTC
Vind 20 kt fra Sør-sørøst
Sikt 10 km eller mer
Spredte skyer i en høyde av 2000 ft
Brutte skyer i en høyde av 4000 ft
lette regnbyger

TAF: ENNE 221100Z 2212/2217 16020KT 9999 -SHRA SCT020 BKN040

Værobservasjoner og værvarsel for over 4000 flyplasser (METAR- og TAF-rapporter).

Tilgjengelige stasjoner er representert av de røde og gule prikkene på kartet.

Hold musepekeren over prikken for å se navnet på stasjonen.

Klikk så for å se værobservasjoner og -varsler.

For å forandre kartet kan du klikke på den grønne knappen med svart kryss for å zoome inn, på den grønne knappen med strek for å zoome ut, eller på de grønne pilene for å se tilstøtende kart.


METAR-TAF: